Time;durP1;ratioP1;P1;durP2;ratioP2;P2;SDS_P1;SDS_P2;PMS_P1;PMS_P2;Temp;Humidity;BMP_temperature;BMP_pressure;BME280_temperature;BME280_humidity;BME280_pressure;Samples;Min_cycle;Max_cycle;Signal;HPM_P1;HPM_P2
2023/07/04 00:02:18;;;;;;;4.77;2.33;;;13.50;99.90;;;;;;5015096;28;20236;-49
2023/07/04 00:04:45;;;;;;;3.40;1.73;;;13.50;99.90;;;;;;5017551;28;20226;-53
2023/07/04 00:07:13;;;;;;;3.50;1.90;;;13.40;99.90;;;;;;5022768;28;20253;-53
2023/07/04 00:09:40;;;;;;;6.40;1.80;;;13.40;99.90;;;;;;4999231;28;20231;-56
2023/07/04 00:12:08;;;;;;;6.07;2.13;;;13.40;99.90;;;;;;5013650;28;20740;-53
2023/07/04 00:14:35;;;;;;;4.20;1.97;;;13.40;99.90;;;;;;5009089;28;20875;-55
2023/07/04 00:17:02;;;;;;;3.17;1.83;;;13.40;99.90;;;;;;5022963;28;20242;-51
2023/07/04 00:19:32;;;;;;;2.70;1.80;;;13.30;99.90;;;;;;5016415;28;20658;-52
2023/07/04 00:21:59;;;;;;;3.20;2.07;;;13.30;99.90;;;;;;5022488;28;20199;-55
2023/07/04 00:24:27;;;;;;;7.47;2.63;;;13.30;99.90;;;;;;4994702;28;20208;-50
2023/07/04 00:26:56;;;;;;;4.90;2.10;;;13.30;99.90;;;;;;5023559;28;20192;-56
2023/07/04 00:29:23;;;;;;;5.00;2.00;;;13.30;99.90;;;;;;5012618;28;20200;-52
2023/07/04 00:31:50;;;;;;;4.90;2.20;;;13.40;99.90;;;;;;5023844;28;20207;-54
2023/07/04 00:34:17;;;;;;;8.57;3.00;;;13.30;99.90;;;;;;5024106;28;20204;-52
2023/07/04 00:36:44;;;;;;;3.10;1.97;;;13.40;99.90;;;;;;5017963;28;20192;-55
2023/07/04 00:39:10;;;;;;;4.00;1.87;;;13.30;99.90;;;;;;5019736;28;20216;-50
2023/07/04 00:41:40;;;;;;;4.70;2.27;;;13.30;99.90;;;;;;5005436;28;20192;-55
2023/07/04 00:44:19;;;;;;;2.43;1.90;;;13.30;99.90;;;;;;5013183;28;20753;-50
2023/07/04 00:46:52;;;;;;;2.63;2.10;;;13.40;99.90;;;;;;5017716;28;20204;-56
2023/07/04 00:49:22;;;;;;;3.97;2.13;;;13.30;99.90;;;;;;5017224;28;20204;-50
2023/07/04 00:51:58;;;;;;;4.83;1.90;;;13.30;99.90;;;;;;5025078;28;20195;-57
2023/07/04 00:54:27;;;;;;;2.93;2.00;;;13.30;99.90;;;;;;5006908;28;20825;-48
2023/07/04 00:57:06;;;;;;;5.90;2.37;;;13.30;99.90;;;;;;5025210;28;20539;-54
2023/07/04 00:59:35;;;;;;;5.90;2.13;;;13.30;99.90;;;;;;5007390;28;20353;-50
2023/07/04 01:02:02;;;;;;;5.27;2.13;;;13.30;99.90;;;;;;5015343;28;20290;-54
2023/07/04 01:04:32;;;;;;;4.20;2.00;;;13.30;99.90;;;;;;5022407;28;20212;-52
2023/07/04 01:07:08;;;;;;;4.50;2.00;;;13.30;99.90;;;;;;5026019;28;20208;-56
2023/07/04 01:09:37;;;;;;;4.77;2.17;;;13.30;99.90;;;;;;5021091;28;20199;-54
2023/07/04 01:12:07;;;;;;;6.40;2.10;;;13.30;99.90;;;;;;5002170;28;20284;-55
2023/07/04 01:14:34;;;;;;;3.20;1.60;;;13.30;99.90;;;;;;5012141;28;20318;-55
2023/07/04 01:17:03;;;;;;;3.57;1.77;;;13.30;99.90;;;;;;5018487;28;20227;-54
2023/07/04 01:19:35;;;;;;;7.17;1.90;;;13.30;99.90;;;;;;5015691;28;20917;-52
2023/07/04 01:22:20;;;;;;;3.43;1.77;;;13.30;99.90;;;;;;5024882;28;20198;-55
2023/07/04 01:24:56;;;;;;;3.67;1.47;;;13.30;99.90;;;;;;5017988;28;20184;-51
2023/07/04 01:27:27;;;;;;;7.00;2.07;;;13.30;99.90;;;;;;5001071;28;20227;-49
2023/07/04 01:29:54;;;;;;;5.93;1.90;;;13.20;99.90;;;;;;5014856;28;20196;-57
2023/07/04 01:32:22;;;;;;;3.93;1.40;;;13.20;99.90;;;;;;5014523;28;20231;-49
2023/07/04 01:34:49;;;;;;;6.63;2.50;;;13.30;99.90;;;;;;5017510;28;20216;-57
2023/07/04 01:37:16;;;;;;;6.47;2.03;;;13.30;99.90;;;;;;5016566;28;20199;-53
2023/07/04 01:39:44;;;;;;;4.57;1.70;;;13.20;99.90;;;;;;5021697;28;20873;-56
2023/07/04 01:42:11;;;;;;;5.60;2.00;;;13.30;99.90;;;;;;5004192;28;20232;-57
2023/07/04 01:44:39;;;;;;;4.43;1.93;;;13.30;99.90;;;;;;5012878;28;21833;-55
2023/07/04 01:47:07;;;;;;;4.10;1.70;;;13.30;99.90;;;;;;5022049;28;20204;-51
2023/07/04 01:49:34;;;;;;;3.80;1.70;;;13.20;99.90;;;;;;5012555;28;20203;-57
2023/07/04 01:52:01;;;;;;;5.17;1.60;;;13.20;99.90;;;;;;5023936;28;20821;-48
2023/07/04 01:54:28;;;;;;;3.00;1.53;;;13.20;99.90;;;;;;5022461;28;20211;-54
2023/07/04 01:56:56;;;;;;;5.57;1.50;;;13.20;99.90;;;;;;4991779;28;20306;-55
2023/07/04 01:59:23;;;;;;;4.13;1.60;;;13.20;99.90;;;;;;5020454;28;20590;-55
2023/07/04 02:01:52;;;;;;;6.70;2.03;;;13.20;99.90;;;;;;5010311;28;20655;-55
2023/07/04 02:04:18;;;;;;;5.13;1.70;;;13.10;99.90;;;;;;5018870;28;20543;-55
2023/07/04 02:06:45;;;;;;;4.10;1.20;;;13.10;99.90;;;;;;5022411;28;20196;-49
2023/07/04 02:09:12;;;;;;;3.00;1.47;;;13.10;99.90;;;;;;5021808;28;20204;-55
2023/07/04 02:11:39;;;;;;;3.43;1.53;;;13.10;99.90;;;;;;5015979;28;20207;-54
2023/07/04 02:14:07;;;;;;;3.53;1.20;;;13.10;99.90;;;;;;4998012;28;20467;-56
2023/07/04 02:16:33;;;;;;;2.67;1.43;;;13.10;99.90;;;;;;5015998;28;20261;-52
2023/07/04 02:19:02;;;;;;;3.10;1.70;;;13.00;99.90;;;;;;5013540;28;20285;-52
2023/07/04 02:21:29;;;;;;;4.50;1.27;;;13.00;99.90;;;;;;5024626;28;20196;-56
2023/07/04 02:23:55;;;;;;;7.93;1.97;;;13.00;99.90;;;;;;5014816;28;20966;-54
2023/07/04 02:26:22;;;;;;;6.00;1.60;;;12.90;99.90;;;;;;5015761;28;20196;-54
2023/07/04 02:28:50;;;;;;;2.17;1.30;;;12.90;99.90;;;;;;5001420;28;20184;-49
2023/07/04 02:31:17;;;;;;;2.67;1.53;;;12.90;99.90;;;;;;5014866;28;20585;-53
2023/07/04 02:33:44;;;;;;;3.67;1.53;;;12.80;99.90;;;;;;5018213;28;20246;-52
2023/07/04 02:36:13;;;;;;;2.17;1.20;;;12.80;99.90;;;;;;5014947;28;20282;-55
2023/07/04 02:38:40;;;;;;;5.10;1.77;;;12.80;99.90;;;;;;5014477;28;20208;-51
2023/07/04 02:41:09;;;;;;;4.27;2.10;;;12.70;99.90;;;;;;5021299;28;20447;-57
2023/07/04 02:43:37;;;;;;;4.60;1.60;;;12.70;99.90;;;;;;5015763;28;20295;-51
2023/07/04 02:46:05;;;;;;;7.50;1.70;;;12.70;99.90;;;;;;4992432;28;20208;-57
2023/07/04 02:48:33;;;;;;;3.27;1.37;;;12.60;99.90;;;;;;5016831;28;20181;-53
2023/07/04 02:51:01;;;;;;;4.60;1.53;;;12.60;99.90;;;;;;5013464;28;20254;-52
2023/07/04 02:53:30;;;;;;;4.83;1.60;;;12.60;99.90;;;;;;5022961;28;20220;-54
2023/07/04 02:55:56;;;;;;;6.37;1.87;;;12.60;99.90;;;;;;5019904;28;20219;-53
2023/07/04 02:58:27;;;;;;;7.03;1.97;;;12.50;99.90;;;;;;5022616;28;20215;-54
2023/07/04 03:00:54;;;;;;;7.03;1.60;;;12.50;99.90;;;;;;4986967;28;20211;-55
2023/07/04 03:03:23;;;;;;;6.80;2.37;;;12.50;99.90;;;;;;5023045;28;20222;-54
2023/07/04 03:05:51;;;;;;;4.30;1.67;;;12.50;99.90;;;;;;5011374;28;20226;-56
2023/07/04 03:08:18;;;;;;;3.63;1.87;;;12.40;99.90;;;;;;5022456;28;20579;-51
2023/07/04 03:10:47;;;;;;;5.37;1.87;;;12.40;99.90;;;;;;5015069;28;20269;-52
2023/07/04 03:13:17;;;;;;;4.07;1.50;;;12.40;99.90;;;;;;5010108;28;20322;-51
2023/07/04 03:15:45;;;;;;;2.90;1.63;;;12.30;99.90;;;;;;4999188;28;20212;-53
2023/07/04 03:18:12;;;;;;;4.00;1.47;;;12.30;99.90;;;;;;5014901;28;20604;-49
2023/07/04 03:20:40;;;;;;;5.80;1.93;;;12.30;99.90;;;;;;5014574;28;20202;-56
2023/07/04 03:23:08;;;;;;;3.50;1.50;;;12.30;99.90;;;;;;5023730;28;20587;-54
2023/07/04 03:25:35;;;;;;;2.63;1.70;;;12.30;99.90;;;;;;5012729;28;20275;-52
2023/07/04 03:28:04;;;;;;;3.07;1.80;;;12.30;99.90;;;;;;5019178;28;20192;-51
2023/07/04 03:30:31;;;;;;;8.30;1.47;;;12.30;99.90;;;;;;4998270;28;20204;-51
2023/07/04 03:33:10;;;;;;;3.87;1.53;;;12.30;99.90;;;;;;5008180;28;20225;-55
2023/07/04 03:35:38;;;;;;;9.93;1.90;;;12.30;99.90;;;;;;5017198;28;20191;-52
2023/07/04 03:38:05;;;;;;;4.00;1.40;;;12.30;99.90;;;;;;5017476;28;20201;-55
2023/07/04 03:40:32;;;;;;;5.27;1.73;;;12.30;99.90;;;;;;5023168;28;20200;-55
2023/07/04 03:42:59;;;;;;;5.33;1.93;;;12.30;99.90;;;;;;5017940;28;20216;-53
2023/07/04 03:45:28;;;;;;;4.20;2.10;;;12.40;99.90;;;;;;5009342;28;20212;-52
2023/07/04 03:47:54;;;;;;;3.03;2.00;;;12.40;99.90;;;;;;5001921;28;21229;-53
2023/07/04 03:50:21;;;;;;;6.40;2.20;;;12.30;99.90;;;;;;5020849;28;20261;-54
2023/07/04 03:52:50;;;;;;;5.80;2.07;;;12.40;99.90;;;;;;5011002;28;20216;-56
2023/07/04 03:55:16;;;;;;;8.33;2.50;;;12.40;99.90;;;;;;5023078;28;20567;-56
2023/07/04 03:57:43;;;;;;;5.67;2.40;;;12.40;99.90;;;;;;5018819;28;20188;-53
2023/07/04 04:00:12;;;;;;;6.43;2.60;;;12.40;99.90;;;;;;5020380;28;20239;-50
2023/07/04 04:03:01;;;;;;;5.87;2.20;;;12.50;99.90;;;;;;4998049;28;20323;-57
2023/07/04 04:05:28;;;;;;;5.23;2.20;;;12.50;99.90;;;;;;5017523;28;20207;-57
2023/07/04 04:07:55;;;;;;;5.13;1.73;;;12.50;99.90;;;;;;5015155;28;20199;-50
2023/07/04 04:10:22;;;;;;;6.43;2.50;;;12.50;99.90;;;;;;5019695;28;20204;-50
2023/07/04 04:12:49;;;;;;;9.30;3.37;;;12.50;99.90;;;;;;5022320;28;20235;-53
2023/07/04 04:15:16;;;;;;;5.77;2.37;;;12.60;99.90;;;;;;5022175;28;20269;-52
2023/07/04 04:17:43;;;;;;;7.83;2.87;;;12.60;99.90;;;;;;5003713;28;20285;-53
2023/07/04 04:20:12;;;;;;;9.40;3.20;;;12.60;99.90;;;;;;5021459;28;20236;-53
2023/07/04 04:22:44;;;;;;;3.90;2.30;;;12.60;99.90;;;;;;5013282;28;20241;-55
2023/07/04 04:25:11;;;;;;;7.40;2.83;;;12.70;99.90;;;;;;5009362;28;20195;-56
2023/07/04 04:27:39;;;;;;;4.77;2.47;;;12.80;99.90;;;;;;5030108;28;20207;-51
2023/07/04 04:30:08;;;;;;;8.90;2.53;;;12.80;99.90;;;;;;5019226;28;20207;-53
2023/07/04 04:32:35;;;;;;;6.97;3.03;;;12.80;99.90;;;;;;5028342;28;20223;-51
2023/07/04 04:35:02;;;;;;;5.83;3.10;;;12.90;99.90;;;;;;4990900;28;20270;-51
2023/07/04 04:37:30;;;;;;;7.80;3.13;;;12.90;99.90;;;;;;5016754;28;20204;-54
2023/07/04 04:39:57;;;;;;;6.57;2.13;;;13.00;99.90;;;;;;5014357;28;20251;-52
2023/07/04 04:42:24;;;;;;;5.90;2.50;;;13.00;99.90;;;;;;5027648;28;20289;-56
2023/07/04 04:44:53;;;;;;;6.33;2.27;;;13.00;99.90;;;;;;5025168;28;20259;-52
2023/07/04 04:47:23;;;;;;;5.90;2.33;;;13.10;99.90;;;;;;5010194;28;20207;-54
2023/07/04 04:49:50;;;;;;;5.93;2.30;;;13.00;99.90;;;;;;5007107;28;20191;-53
2023/07/04 04:52:17;;;;;;;5.90;2.10;;;13.10;99.90;;;;;;5014244;28;20232;-55
2023/07/04 04:54:45;;;;;;;7.27;2.23;;;13.10;99.90;;;;;;5022213;28;20274;-55
2023/07/04 04:57:13;;;;;;;6.73;2.60;;;13.10;99.90;;;;;;5020975;28;20215;-52
2023/07/04 04:59:40;;;;;;;6.00;2.57;;;13.20;99.90;;;;;;5022110;28;20223;-52
2023/07/04 05:02:09;;;;;;;6.40;3.10;;;13.30;99.90;;;;;;5019629;28;20245;-52
2023/07/04 05:04:36;;;;;;;4.73;2.07;;;13.30;99.90;;;;;;5008478;28;20817;-52
2023/07/04 05:07:03;;;;;;;5.30;2.10;;;13.30;99.90;;;;;;5013874;28;20258;-49
2023/07/04 05:09:30;;;;;;;3.87;1.80;;;13.40;99.90;;;;;;5018454;28;20224;-49
2023/07/04 05:11:58;;;;;;;3.97;2.17;;;13.50;99.90;;;;;;5012032;28;20204;-55
2023/07/04 05:14:25;;;;;;;7.67;2.47;;;13.50;99.90;;;;;;5021950;28;20196;-57
2023/07/04 05:16:51;;;;;;;5.73;2.33;;;13.50;99.90;;;;;;5021135;28;20204;-48
2023/07/04 05:19:18;;;;;;;5.70;2.67;;;13.60;99.90;;;;;;5016350;28;20248;-49
2023/07/04 05:21:48;;;;;;;6.83;2.30;;;13.70;99.90;;;;;;5004282;28;20278;-52
2023/07/04 05:24:15;;;;;;;5.43;1.90;;;13.70;99.90;;;;;;5013357;28;20605;-51
2023/07/04 05:26:41;;;;;;;4.90;1.87;;;13.80;99.90;;;;;;5013622;28;20863;-50
2023/07/04 05:29:09;;;;;;;5.00;1.77;;;13.80;99.90;;;;;;5023281;28;20200;-50
2023/07/04 05:31:36;;;;;;;6.30;2.17;;;13.90;99.90;;;;;;5011752;28;20196;-46
2023/07/04 05:34:03;;;;;;;6.97;2.63;;;13.90;99.90;;;;;;5016306;28;20251;-52
2023/07/04 05:36:33;;;;;;;5.87;1.90;;;14.00;99.90;;;;;;5001300;28;20293;-55
2023/07/04 05:39:02;;;;;;;7.30;2.17;;;14.00;99.90;;;;;;5018816;28;20216;-53
2023/07/04 05:41:31;;;;;;;5.47;2.00;;;14.10;99.90;;;;;;5015472;28;20219;-55
2023/07/04 05:44:00;;;;;;;9.00;2.40;;;14.10;99.90;;;;;;5024854;28;20227;-47
2023/07/04 05:46:29;;;;;;;5.27;1.90;;;14.20;99.90;;;;;;5009238;28;20200;-53
2023/07/04 05:48:56;;;;;;;6.03;2.53;;;14.20;99.90;;;;;;5022313;28;20242;-52
2023/07/04 05:51:23;;;;;;;6.03;3.00;;;14.30;99.90;;;;;;4996362;28;22487;-55
2023/07/04 05:53:51;;;;;;;4.70;2.30;;;14.30;99.90;;;;;;5022041;28;20227;-55
2023/07/04 05:56:20;;;;;;;4.23;1.87;;;14.40;99.90;;;;;;5008170;28;20228;-52
2023/07/04 05:58:49;;;;;;;4.63;2.27;;;14.40;99.90;;;;;;5019728;28;20254;-53
2023/07/04 06:01:20;;;;;;;5.33;2.00;;;14.50;99.90;;;;;;5020630;28;20215;-51
2023/07/04 06:03:49;;;;;;;8.07;2.03;;;14.50;99.90;;;;;;5024666;28;20216;-58
2023/07/04 06:06:18;;;;;;;4.27;2.07;;;14.60;99.90;;;;;;5001563;28;20285;-50
2023/07/04 06:08:45;;;;;;;6.43;2.17;;;14.60;99.90;;;;;;5020763;28;20231;-58
2023/07/04 06:11:12;;;;;;;6.33;1.97;;;14.70;99.90;;;;;;5005731;28;20200;-55
2023/07/04 06:13:40;;;;;;;8.43;2.70;;;14.80;99.90;;;;;;5019908;28;20215;-53
2023/07/04 06:16:07;;;;;;;5.53;1.70;;;14.90;99.90;;;;;;5023658;28;20246;-52
2023/07/04 06:18:34;;;;;;;7.60;1.90;;;14.90;99.90;;;;;;5022104;28;20285;-54
2023/07/04 06:21:10;;;;;;;4.13;2.20;;;14.90;99.90;;;;;;5024282;28;20258;-53
2023/07/04 06:23:37;;;;;;;3.67;1.80;;;15.00;99.90;;;;;;4991761;28;20227;-52
2023/07/04 06:26:04;;;;;;;6.90;2.60;;;15.00;99.90;;;;;;5013377;28;20798;-54
2023/07/04 06:28:31;;;;;;;4.93;2.30;;;15.10;99.90;;;;;;5017686;28;20210;-53
2023/07/04 06:30:59;;;;;;;4.67;1.90;;;15.20;99.90;;;;;;5021692;28;20201;-57
2023/07/04 06:33:26;;;;;;;6.20;1.90;;;15.20;99.90;;;;;;5023028;28;20212;-53
2023/07/04 06:35:53;;;;;;;6.27;2.67;;;15.30;99.90;;;;;;5017235;28;20216;-56
2023/07/04 06:38:21;;;;;;;3.80;1.80;;;15.40;99.90;;;;;;5004895;28;20239;-48
2023/07/04 06:40:56;;;;;;;6.70;1.90;;;15.40;99.90;;;;;;5016673;28;20243;-55
2023/07/04 06:43:23;;;;;;;5.83;1.63;;;15.50;99.90;;;;;;5016407;28;20226;-52
2023/07/04 06:45:50;;;;;;;3.63;2.20;;;15.60;99.90;;;;;;5020184;28;20193;-56
2023/07/04 06:48:17;;;;;;;5.23;1.90;;;15.70;99.90;;;;;;5018265;28;20953;-48
2023/07/04 06:50:45;;;;;;;5.47;1.80;;;15.80;99.90;;;;;;5023805;28;20242;-50
2023/07/04 06:53:12;;;;;;;6.60;1.90;;;15.80;99.90;;;;;;5000034;28;20228;-51
2023/07/04 06:55:40;;;;;;;2.53;1.30;;;15.80;99.90;;;;;;5023791;28;20207;-52
2023/07/04 06:58:07;;;;;;;4.23;1.63;;;15.80;99.90;;;;;;5002040;28;20196;-50
2023/07/04 07:00:34;;;;;;;4.00;1.70;;;15.90;99.90;;;;;;5021377;28;20639;-49
2023/07/04 07:03:01;;;;;;;3.37;1.67;;;15.90;99.90;;;;;;5020628;28;20577;-53
2023/07/04 07:05:28;;;;;;;4.27;2.20;;;16.00;99.90;;;;;;5015058;28;20200;-58
2023/07/04 07:07:54;;;;;;;4.93;1.70;;;16.10;99.90;;;;;;5020077;28;20192;-56
2023/07/04 07:10:21;;;;;;;2.27;1.20;;;16.30;99.90;;;;;;4997336;28;20932;-56
2023/07/04 07:12:49;;;;;;;6.03;1.57;;;16.40;99.90;;;;;;5013260;28;20286;-53
2023/07/04 07:15:16;;;;;;;4.10;1.87;;;16.40;99.90;;;;;;5016240;28;20200;-57
2023/07/04 07:17:43;;;;;;;3.37;1.40;;;16.50;99.90;;;;;;5018661;28;20224;-54
2023/07/04 07:20:11;;;;;;;4.50;1.70;;;16.50;99.90;;;;;;5010192;28;20219;-46
2023/07/04 07:22:38;;;;;;;4.13;1.50;;;16.50;99.90;;;;;;5012369;28;20700;-54
2023/07/04 07:25:07;;;;;;;3.03;1.70;;;16.50;99.90;;;;;;5006639;28;20296;-52
2023/07/04 07:27:33;;;;;;;3.13;1.33;;;16.50;99.90;;;;;;5009141;28;20607;-55
2023/07/04 07:30:02;;;;;;;3.70;1.83;;;16.50;99.90;;;;;;5016619;28;20250;-48
2023/07/04 07:32:29;;;;;;;11.87;2.00;;;16.60;99.90;;;;;;5017812;28;20706;-57
2023/07/04 07:34:56;;;;;;;4.47;1.80;;;16.60;99.90;;;;;;5016633;28;20214;-52
2023/07/04 07:37:23;;;;;;;4.20;1.80;;;16.60;99.90;;;;;;5020097;28;20590;-58
2023/07/04 07:39:50;;;;;;;6.90;2.10;;;16.70;99.90;;;;;;5022135;28;20215;-51
2023/07/04 07:42:17;;;;;;;3.90;2.03;;;16.70;99.90;;;;;;4999589;28;20768;-53
2023/07/04 07:44:44;;;;;;;4.00;2.20;;;16.80;99.90;;;;;;5007684;28;20285;-51
2023/07/04 07:47:12;;;;;;;5.27;2.00;;;16.80;99.90;;;;;;5015657;28;20720;-57
2023/07/04 07:49:39;;;;;;;7.00;2.17;;;16.80;99.90;;;;;;5013559;28;20180;-55
2023/07/04 07:52:06;;;;;;;6.40;2.10;;;16.70;99.90;;;;;;5020845;28;20204;-52
2023/07/04 07:54:35;;;;;;;4.37;2.30;;;16.60;99.90;;;;;;5019035;28;20219;-56
2023/07/04 07:57:02;;;;;;;4.20;1.90;;;16.70;99.90;;;;;;5001238;28;20725;-53
2023/07/04 07:59:28;;;;;;;4.70;1.90;;;16.70;99.90;;;;;;5002642;28;20239;-55
2023/07/04 08:01:56;;;;;;;2.83;1.90;;;16.80;99.90;;;;;;5019614;28;20203;-50
2023/07/04 08:04:25;;;;;;;5.73;2.33;;;16.90;99.90;;;;;;5018760;28;20204;-56
2023/07/04 08:06:52;;;;;;;3.70;2.17;;;17.00;99.90;;;;;;5020586;28;20180;-53
2023/07/04 08:09:20;;;;;;;6.63;2.27;;;17.10;99.90;;;;;;5018198;28;20609;-55
2023/07/04 08:11:48;;;;;;;2.57;2.00;;;17.10;99.90;;;;;;4995195;28;20208;-54
2023/07/04 08:14:16;;;;;;;3.17;1.90;;;17.20;99.90;;;;;;5015927;28;20586;-55
2023/07/04 08:16:45;;;;;;;4.90;1.97;;;17.10;99.90;;;;;;5010876;28;20273;-54
2023/07/04 08:19:13;;;;;;;5.57;2.30;;;17.20;99.90;;;;;;5021435;28;20781;-53
2023/07/04 08:21:42;;;;;;;4.90;1.70;;;17.10;99.90;;;;;;5013632;28;20589;-55
2023/07/04 08:24:12;;;;;;;3.63;1.90;;;17.00;99.90;;;;;;5020477;28;20278;-51
2023/07/04 08:26:40;;;;;;;4.30;1.60;;;17.00;99.90;;;;;;4999414;28;20796;-53
2023/07/04 08:29:08;;;;;;;2.27;1.70;;;17.10;99.90;;;;;;5015760;28;20231;-52
2023/07/04 08:31:35;;;;;;;4.13;1.90;;;17.10;99.90;;;;;;5010827;28;20238;-54
2023/07/04 08:34:03;;;;;;;4.87;2.13;;;17.30;99.90;;;;;;5014986;28;20945;-52
2023/07/04 08:36:30;;;;;;;4.70;2.23;;;17.30;99.90;;;;;;5017951;28;20197;-55
2023/07/04 08:38:58;;;;;;;5.07;2.00;;;17.50;99.90;;;;;;5021013;28;20655;-54
2023/07/04 08:41:36;;;;;;;3.37;1.87;;;17.60;99.90;;;;;;5017012;28;20216;-55
2023/07/04 08:44:06;;;;;;;6.70;1.90;;;17.60;99.90;;;;;;4995911;28;20299;-57
2023/07/04 08:46:36;;;;;;;3.77;1.90;;;17.60;99.90;;;;;;5009473;28;20200;-47
2023/07/04 08:49:04;;;;;;;3.20;2.10;;;17.60;99.90;;;;;;5024670;28;20212;-56
2023/07/04 08:51:39;;;;;;;3.80;1.90;;;17.60;99.90;;;;;;5021183;28;20659;-51
2023/07/04 08:54:12;;;;;;;4.07;1.50;;;17.70;99.90;;;;;;5010805;28;20296;-50
2023/07/04 08:56:40;;;;;;;3.43;1.57;;;17.60;99.90;;;;;;5022528;28;20200;-54
2023/07/04 08:59:16;;;;;;;2.60;1.40;;;17.50;99.90;;;;;;4989289;28;20347;-55
2023/07/04 09:01:57;;;;;;;4.30;1.23;;;17.50;99.90;;;;;;5019494;28;20251;-56
2023/07/04 09:04:32;;;;;;;4.07;1.50;;;17.50;99.90;;;;;;5024221;28;20567;-54
2023/07/04 09:07:06;;;;;;;4.20;1.80;;;17.50;99.90;;;;;;5020443;28;20195;-55
2023/07/04 09:09:44;;;;;;;4.13;1.53;;;17.60;99.90;;;;;;5018355;28;20245;-54
2023/07/04 09:12:12;;;;;;;3.20;1.50;;;17.60;99.90;;;;;;5019642;28;20274;-54
2023/07/04 09:14:43;;;;;;;2.57;1.23;;;17.60;99.90;;;;;;5005387;28;20278;-54
2023/07/04 09:17:27;;;;;;;2.67;1.23;;;17.60;99.90;;;;;;5007289;28;20220;-57
2023/07/04 09:19:55;;;;;;;4.57;1.53;;;17.30;99.90;;;;;;5019224;28;20224;-52
2023/07/04 09:22:22;;;;;;;3.20;1.40;;;17.30;99.90;;;;;;5016895;28;20240;-57
2023/07/04 09:24:50;;;;;;;5.23;1.63;;;17.30;99.90;;;;;;5024506;28;20223;-55
2023/07/04 09:27:17;;;;;;;3.47;1.10;;;17.20;99.90;;;;;;5021494;28;20285;-56
2023/07/04 09:29:44;;;;;;;1.70;1.27;;;17.10;99.90;;;;;;5002755;28;20223;-57
2023/07/04 09:32:12;;;;;;;3.30;1.47;;;17.10;99.90;;;;;;5006135;28;20204;-52
2023/07/04 09:34:47;;;;;;;2.47;1.23;;;17.00;99.90;;;;;;5019431;28;20208;-54
2023/07/04 09:37:16;;;;;;;2.93;1.40;;;17.20;99.90;;;;;;5019109;28;20192;-54
2023/07/04 09:39:49;;;;;;;3.40;1.50;;;17.40;99.90;;;;;;5022529;28;20195;-57
2023/07/04 09:42:19;;;;;;;2.33;1.30;;;17.40;99.90;;;;;;5019791;28;20457;-51
2023/07/04 09:44:47;;;;;;;2.87;1.53;;;17.40;99.90;;;;;;5022629;28;20199;-55
2023/07/04 09:47:22;;;;;;;2.93;1.13;;;17.60;99.90;;;;;;4992846;28;20474;-55
2023/07/04 09:50:07;;;;;;;2.60;1.03;;;17.80;99.90;;;;;;5014002;28;20211;-55
2023/07/04 09:52:34;;;;;;;4.63;1.10;;;17.80;99.90;;;;;;5021248;28;20320;-50
2023/07/04 09:55:13;;;;;;;1.30;1.10;;;17.90;99.90;;;;;;5019791;28;20215;-53
2023/07/04 09:57:41;;;;;;;2.57;1.20;;;18.10;99.90;;;;;;5015743;28;20356;-52
2023/07/04 10:00:18;;;;;;;4.30;1.40;;;18.30;99.90;;;;;;5016596;28;20258;-51
2023/07/04 10:02:47;;;;;;;1.90;0.83;;;18.40;99.90;;;;;;4997641;28;20601;-52
2023/07/04 10:05:26;;;;;;;3.20;1.00;;;18.40;99.90;;;;;;5012956;28;20350;-49
2023/07/04 10:08:05;;;;;;;5.00;1.53;;;18.30;99.90;;;;;;5021942;28;20680;-51
2023/07/04 10:10:36;;;;;;;5.30;1.10;;;18.20;99.90;;;;;;5016049;28;20644;-53
2023/07/04 10:13:07;;;;;;;4.63;0.90;;;18.30;99.90;;;;;;5020067;28;20231;-55
2023/07/04 10:15:40;;;;;;;1.97;0.80;;;18.40;99.90;;;;;;5020814;28;20203;-48
2023/07/04 10:18:07;;;;;;;1.40;0.90;;;18.60;99.90;;;;;;4993075;28;20208;-54
2023/07/04 10:20:40;;;;;;;2.60;0.83;;;18.60;99.90;;;;;;5021159;28;20277;-48
2023/07/04 10:23:07;;;;;;;2.47;0.90;;;18.60;99.90;;;;;;5014899;28;20212;-45
2023/07/04 10:25:35;;;;;;;2.57;0.90;;;18.70;99.90;;;;;;5016187;28;20290;-59
2023/07/04 10:28:13;;;;;;;1.60;0.90;;;18.80;99.90;;;;;;5021127;28;20188;-53
2023/07/04 10:30:42;;;;;;;2.00;0.70;;;18.90;99.90;;;;;;5016479;28;20206;-54
2023/07/04 10:33:15;;;;;;;2.07;0.80;;;18.80;99.90;;;;;;4993778;28;20266;-53
2023/07/04 10:35:45;;;;;;;1.63;0.67;;;18.90;99.90;;;;;;5011382;28;20676;-56
2023/07/04 10:38:22;;;;;;;1.60;0.80;;;19.10;99.90;;;;;;5014479;28;20192;-58
2023/07/04 10:40:50;;;;;;;1.77;0.90;;;19.20;99.90;;;;;;5021782;28;20250;-54
2023/07/04 10:43:26;;;;;;;0.97;0.57;;;19.20;99.90;;;;;;5018844;28;20219;-58
2023/07/04 10:45:54;;;;;;;4.53;0.87;;;19.20;99.90;;;;;;5010894;28;20199;-52
2023/07/04 10:48:22;;;;;;;3.70;0.90;;;19.30;99.90;;;;;;5017540;28;20807;-58
2023/07/04 10:50:52;;;;;;;0.93;0.47;;;19.20;99.90;;;;;;4995965;28;20200;-51
2023/07/04 10:53:19;;;;;;;2.30;0.63;;;19.00;99.90;;;;;;5020755;28;21145;-57
2023/07/04 10:55:50;;;;;;;4.23;0.63;;;18.80;99.90;;;;;;5019861;28;20733;-55
2023/07/04 10:58:22;;;;;;;1.50;0.70;;;18.80;99.90;;;;;;5013691;28;20195;-58
2023/07/04 11:00:55;;;;;;;3.70;1.30;;;18.80;99.90;;;;;;5023002;28;20208;-54
2023/07/04 11:03:29;;;;;;;1.33;0.60;;;18.80;99.90;;;;;;5012898;28;20211;-58
2023/07/04 11:05:57;;;;;;;0.87;0.40;;;18.20;96.90;;;;;;4996573;28;20293;-54
2023/07/04 11:08:29;;;;;;;1.80;0.70;;;17.60;97.80;;;;;;5014763;28;20188;-55
2023/07/04 11:11:00;;;;;;;1.30;0.80;;;17.20;98.00;;;;;;5017485;28;20266;-58
2023/07/04 11:13:28;;;;;;;1.00;0.70;;;17.10;98.20;;;;;;5022801;28;20659;-48
2023/07/04 11:15:57;;;;;;;0.80;0.40;;;16.90;98.50;;;;;;5018852;28;20207;-58
2023/07/04 11:18:29;;;;;;;1.00;0.57;;;16.70;98.00;;;;;;5019844;28;20192;-46
2023/07/04 11:21:10;;;;;;;3.80;0.60;;;16.50;98.60;;;;;;4994015;28;20220;-53
2023/07/04 11:23:46;;;;;;;0.30;0.30;;;16.30;98.80;;;;;;5012428;28;20223;-53
2023/07/04 11:26:13;;;;;;;0.77;0.60;;;16.20;99.30;;;;;;5018035;28;20218;-49
2023/07/04 11:28:50;;;;;;;0.50;0.40;;;16.20;99.70;;;;;;5022141;28;20196;-49
2023/07/04 11:31:23;;;;;;;1.00;0.40;;;16.20;99.50;;;;;;5018534;28;20249;-51
2023/07/04 11:34:10;;;;;;;1.80;0.70;;;16.20;99.90;;;;;;5015624;28;20220;-55
2023/07/04 11:36:42;;;;;;;0.70;0.40;;;16.20;99.90;;;;;;4998423;28;20282;-47
2023/07/04 11:39:31;;;;;;;1.00;0.53;;;16.20;99.90;;;;;;5011614;28;20207;-45
2023/07/04 11:42:08;;;;;;;2.63;0.50;;;16.40;99.90;;;;;;5011385;28;20302;-57
2023/07/04 11:44:51;;;;;;;1.17;1.00;;;16.30;99.90;;;;;;5013099;28;20210;-51
2023/07/04 11:47:34;;;;;;;0.93;0.40;;;16.40;99.90;;;;;;5014644;28;20978;-49
2023/07/04 11:50:05;;;;;;;1.80;0.60;;;16.50;99.90;;;;;;5018901;28;20204;-56
2023/07/04 11:52:34;;;;;;;0.80;0.30;;;16.50;99.90;;;;;;5001797;28;20219;-46
2023/07/04 11:55:05;;;;;;;0.50;0.50;;;16.50;99.90;;;;;;5011827;28;20231;-56
2023/07/04 11:57:59;;;;;;;1.53;0.60;;;16.20;99.90;;;;;;5015488;28;20196;-52
2023/07/04 12:00:58;;;;;;;0.43;0.43;;;16.00;99.90;;;;;;5019863;28;20190;-49
2023/07/04 12:03:56;;;;;;;0.87;0.77;;;15.90;99.90;;;;;;5018451;28;20196;-54
2023/07/04 12:06:55;;;;;;;1.80;0.70;;;15.80;99.90;;;;;;5018944;28;20200;-51
2023/07/04 12:09:43;;;;;;;0.80;0.30;;;15.90;99.90;;;;;;5004706;28;20196;-50
2023/07/04 12:12:19;;;;;;;3.50;0.50;;;15.90;99.90;;;;;;5010732;28;20203;-51
2023/07/04 12:14:47;;;;;;;0.50;0.40;;;15.90;99.90;;;;;;5022206;28;20210;-51
2023/07/04 12:17:17;;;;;;;0.60;0.60;;;16.00;99.90;;;;;;5016650;28;20211;-50
2023/07/04 12:19:44;;;;;;;0.87;0.57;;;16.10;99.90;;;;;;5021245;28;20192;-56
2023/07/04 12:22:17;;;;;;;1.07;0.37;;;16.10;99.90;;;;;;5015827;28;20215;-49
2023/07/04 12:24:46;;;;;;;0.40;0.40;;;16.10;99.90;;;;;;5003501;28;20536;-47
2023/07/04 12:27:13;;;;;;;0.40;0.40;;;16.20;99.90;;;;;;5015767;28;20254;-50
2023/07/04 12:29:44;;;;;;;0.53;0.50;;;16.10;99.90;;;;;;5022937;28;20266;-52
2023/07/04 12:32:18;;;;;;;0.80;0.70;;;16.00;99.90;;;;;;5018128;28;20987;-55
2023/07/04 12:34:45;;;;;;;0.73;0.50;;;15.90;99.90;;;;;;5020703;28;20199;-51
2023/07/04 12:37:19;;;;;;;1.40;0.73;;;15.80;99.90;;;;;;5019793;28;20910;-52
2023/07/04 12:39:48;;;;;;;1.80;0.70;;;15.50;99.90;;;;;;5005762;28;20200;-46
2023/07/04 12:42:25;;;;;;;1.47;0.90;;;15.00;99.90;;;;;;5014164;28;20238;-46
2023/07/04 12:44:52;;;;;;;5.03;0.97;;;14.50;99.90;;;;;;5019170;28;20204;-59
2023/07/04 12:47:23;;;;;;;1.90;1.00;;;14.20;99.90;;;;;;5022009;28;20969;-49
2023/07/04 12:49:53;;;;;;;0.90;0.70;;;14.10;99.90;;;;;;5024608;28;20572;-56
2023/07/04 12:52:26;;;;;;;1.70;0.93;;;13.80;99.90;;;;;;5022094;28;20196;-54
2023/07/04 12:54:53;;;;;;;0.87;0.60;;;13.70;99.90;;;;;;5001955;28;20231;-58
2023/07/04 12:57:25;;;;;;;2.17;0.60;;;13.60;99.90;;;;;;5010879;28;20769;-51
2023/07/04 12:59:53;;;;;;;1.00;0.60;;;13.50;99.90;;;;;;5023370;28;20196;-59
2023/07/04 13:02:28;;;;;;;1.43;0.63;;;13.40;99.90;;;;;;5019170;28;20285;-54